• Join FlightAware (Why Join?)
  • Login
  • US Flag 
07:47PM EDT


 

Airport Tracker/Info


-or-


 

Live Flight TrackerFlight Track Log ✈ N143DE ✈ 22-Oct-2013 ✈ KPDK - C29

Flight Track Log - Related Links

Times and Time Zones

All times are in EDT time to prevent confusion due to time zone crossing. See the N143DE flight status page for this flight to view local times or setup timezone preferences in your user account.

Time Position Orientation Groundspeed Altitude Reporting Facility
EDT Latitude Longitude Course Direction KTS MPH feet Rate Location/Type
06:46AM 34.0525 -84.3722 340° North 172 198 8,300  Level Atlanta Center
06:47AM 34.0983 -84.3925 340° North 172 198 9,800 1,380 Climbing Atlanta Center
06:48AM 34.1444 -84.4128 340° North 172 198 11,100 1,140 Climbing Atlanta Center
06:49AM 34.2006 -84.4381 340° North 194 223 12,100 1,140 Climbing Atlanta Center
06:50AM 34.2569 -84.4636 339° North 209 241 13,400 1,200 Climbing Atlanta Center
06:51AM 34.3153 -84.4814 341° North 214 246 14,600 1,320 Climbing Atlanta Center
06:52AM 34.3842 -84.4894 354° North 219 252 16,100 1,440 Climbing Atlanta Center
06:53AM 34.4425 -84.4997 352° North 219 252 17,500 1,320 Climbing Atlanta Center
06:54AM 34.4989 -84.5075 354° North 214 246 18,800 1,200 Climbing Atlanta Center
06:55AM 34.5531 -84.5156 353° North 209 241 20,000 1,020 Climbing Atlanta Center
06:56AM 34.6114 -84.5233 354° North 209 241 20,900 900 Climbing Atlanta Center
06:57AM 34.6636 -84.5414 344° North 194 223 21,900 1,020 Climbing Atlanta Center
06:58AM 34.7072 -84.5694 332° Northwest 183 211 23,000 900 Climbing Atlanta Center
06:59AM 34.7572 -84.5875 343° North 183 211 23,800 720 Climbing Atlanta Center
07:00AM 34.8094 -84.6031 346° North 183 211 24,500 600 Climbing Atlanta Center
07:01AM 34.8636 -84.6183 347° North 189 217 25,100 600 Climbing Atlanta Center
07:02AM 34.9197 -84.6342 347° North 189 217 25,700 420 Climbing Atlanta Center
07:03AM 34.9636 -84.6497 344° North 194 223 26,000 120 Climbing Atlanta Center
07:04AM 35.0303 -84.6703 346° North 209 241 26,000  Level Atlanta Center
07:05AM 35.1011 -84.6886 348° North 235 270 26,000  Level Atlanta Center
07:06AM 35.1678 -84.7094 346° North 241 277 26,000  Level Atlanta Center
07:07AM 35.2386 -84.7278 348° North 246 283 26,000  Level Atlanta Center
07:08AM 35.3094 -84.7464 348° North 252 290 26,000  Level Atlanta Center
07:09AM 35.3761 -84.7647 347° North 252 290 26,000  Level Atlanta Center
07:10AM 35.4469 -84.7831 348° North 252 290 26,000  Level Atlanta Center
07:11AM 35.5136 -84.8042 346° North 247 284 26,000  Level Atlanta Center
07:12AM 35.5803 -84.8228 347° North 247 284 26,000  Level Atlanta Center
07:13AM 35.6469 -84.8436 346° North 242 278 26,000  Level Atlanta Center
07:14AM 35.7114 -84.8622 347° North 242 278 26,000  Level Atlanta Center
07:15AM 35.7800 -84.8808 348° North 242 278 26,000  Level Atlanta Center
07:16AM 35.8550 -84.9022 347° North 242 278 26,000  Level Atlanta Center
07:17AM 35.9294 -84.9247 346° North 246 283 26,000  Level Indianapolis Center
07:18AM 35.9967 -84.9431 348° North 241 277 26,000  Level Indianapolis Center
07:19AM 36.0642 -84.9636 346° North 247 284 26,000  Level Indianapolis Center
07:20AM 36.1314 -84.9814 348° North 248 285 26,000  Level Indianapolis Center
07:21AM 36.1992 -85.0025 346° North 249 287 26,000  Level Indianapolis Center
07:22AM 36.2669 -85.0222 347° North 248 285 26,000  Level Indianapolis Center
07:23AM 36.3344 -85.0428 346° North 249 287 26,000  Level Indianapolis Center
07:24AM 36.4039 -85.0631 347° North 254 292 26,000  Level Indianapolis Center
07:25AM 36.4733 -85.0828 347° North 254 292 26,000  Level Indianapolis Center
07:26AM 36.5425 -85.1042 346° North 256 295 26,000  Level Indianapolis Center
07:27AM 36.6258 -85.1283 347° North 255 293 26,000  Level Indianapolis Center
07:28AM 36.6928 -85.1494 346° North 251 289 26,000  Level Indianapolis Center
07:29AM 36.7608 -85.1678 348° North 250 288 26,000  Level Indianapolis Center
07:30AM 36.8278 -85.1894 345° North 249 287 26,000  Level Indianapolis Center
07:31AM 36.8944 -85.2089 347° North 247 284 26,000  Level Indianapolis Center
07:32AM 36.9611 -85.2306 345° North 248 285 26,000  Level Indianapolis Center
07:33AM 37.0286 -85.2481 348° North 248 285 26,000  Level Indianapolis Center
07:34AM 37.1014 -85.2708 346° North 241 277 26,000  Level Indianapolis Center
07:35AM 37.1669 -85.2897 347° North 241 277 26,000  Level Indianapolis Center
07:36AM 37.2308 -85.3089 347° North 235 270 26,000  Level Indianapolis Center
07:37AM 37.2961 -85.3303 345° North 240 276 26,000  Level Indianapolis Center
07:38AM 37.3639 -85.3497 347° North 246 283 26,000  Level Indianapolis Center
07:39AM 37.4303 -85.3717 345° North 246 283 26,000  Level Indianapolis Center
07:40AM 37.4978 -85.3914 347° North 247 284 26,000  Level Indianapolis Center
07:41AM 37.5672 -85.4125 346° North 254 292 26,000  Level Indianapolis Center
07:42AM 37.6461 -85.4364 347° North 251 289 26,000  Level Indianapolis Center
07:43AM 37.7131 -85.4569 346° North 248 285 26,000  Level Indianapolis Center
07:44AM 37.7808 -85.4772 347° North 249 287 26,000  Level Indianapolis Center
07:45AM 37.8453 -85.4978 346° North 249 287 26,000  Level Indianapolis Center
07:46AM 37.9139 -85.5175 347° North 251 289 26,000  Level Indianapolis Center
07:47AM 37.9806 -85.5397 345° North 250 288 26,000  Level Indianapolis Center
07:49AM 38.0481 -85.5592 347° North 249 287 26,000  Level Indianapolis Center
07:50AM 38.1153 -85.5819 345° North 250 288 26,000  Level Indianapolis Center
07:51AM 38.1844 -85.6250 334° Northwest 231 266 26,000  Level Indianapolis Center
07:52AM 38.2453 -85.6583 337° Northwest 233 268 26,000  Level Indianapolis Center
07:53AM 38.3039 -85.6944 334° Northwest 233 268 26,000  Level Indianapolis Center
07:54AM 38.3611 -85.7300 334° Northwest 229 264 26,000  Level Indianapolis Center
07:55AM 38.4261 -85.7658 337° Northwest 244 281 26,000  Level Indianapolis Center
07:56AM 38.4853 -85.8017 335° Northwest 239 275 26,000  Level Indianapolis Center
07:57AM 38.5444 -85.8383 334° Northwest 237 273 26,000  Level Indianapolis Center
07:58AM 38.6044 -85.8725 336° Northwest 236 272 26,000  Level Indianapolis Center
07:59AM 38.6639 -85.9097 334° Northwest 237 273 26,000  Level Indianapolis Center
08:00AM 38.7356 -85.9514 336° Northwest 237 273 26,000  Level Indianapolis Center
08:01AM 38.7958 -85.9878 335° Northwest 238 274 26,000  Level Indianapolis Center
08:02AM 38.8578 -86.0236 336° Northwest 242 278 26,000  Level Indianapolis Center
08:03AM 38.9158 -86.0583 335° Northwest 242 278 26,000  Level Indianapolis Center
08:04AM 38.9758 -86.0933 336° Northwest 238 274 26,000  Level Indianapolis Center
08:05AM 39.0347 -86.1308 334° Northwest 238 274 26,000  Level Indianapolis Center
08:06AM 39.1072 -86.1744 335° Northwest 241 277 26,000  Level Indianapolis Center
08:07AM 39.1675 -86.2122 334° Northwest 242 278 26,000  Level Indianapolis Center
08:08AM 39.2308 -86.2481 336° Northwest 248 285 26,000  Level Indianapolis Center
08:09AM 39.2906 -86.2847 335° Northwest 240 276 26,000  Level Indianapolis Center
08:10AM 39.3531 -86.3219 335° Northwest 246 283 26,000  Level Indianapolis Center
08:11AM 39.4147 -86.3603 334° Northwest 247 284 26,000  Level Indianapolis Center
08:12AM 39.4758 -86.3964 335° Northwest 243 280 26,000  Level Indianapolis Center
08:13AM 39.5367 -86.4336 335° Northwest 242 278 26,000  Level Indianapolis Center
08:14AM 39.6083 -86.4783 334° Northwest 238 274 26,000  Level Indianapolis Center
08:15AM 39.6689 -86.5153 335° Northwest 239 275 26,000  Level Indianapolis Center
08:16AM 39.7294 -86.5519 335° Northwest 237 273 26,000  Level Indianapolis Center
08:17AM 39.7903 -86.5894 335° Northwest 240 276 26,000  Level Indianapolis Center
08:18AM 39.8497 -86.6261 335° Northwest 238 274 26,000  Level Indianapolis Center
08:19AM 39.9092 -86.6625 335° Northwest 236 272 26,000  Level Indianapolis Center
08:20AM 39.9669 -86.6992 334° Northwest 232 267 26,000  Level Indianapolis Center
08:21AM 40.0258 -86.7347 335° Northwest 232 267 26,000  Level Indianapolis Center
08:22AM 40.0961 -86.7786 334° Northwest 233 268 26,000  Level Indianapolis Center
08:23AM 40.1547 -86.8158 334° Northwest 235 270 26,000  Level Indianapolis Center
08:24AM 40.2131 -86.8522 335° Northwest 234 269 26,000  Level Indianapolis Center
08:25AM 40.2717 -86.8900 334° Northwest 235 270 26,000  Level Indianapolis Center
08:27AM 40.3325 -86.9272 335° Northwest 241 277 26,000  Level Indianapolis Center
08:28AM 40.3914 -86.9661 333° Northwest 238 274 26,000  Level Indianapolis Center
08:29AM 40.4522 -87.0031 335° Northwest 240 276 26,000  Level Indianapolis Center
08:30AM 40.5250 -87.0472 335° Northwest 242 278 26,000  Level Indianapolis Center
08:31AM 40.5850 -87.0844 335° Northwest 240 276 26,000  Level Indianapolis Center
08:32AM 40.6497 -87.1136 341° North 244 281 26,000  Level Indianapolis Center
08:33AM 40.7111 -87.1478 337° Northwest 241 277 26,000  Level Indianapolis Center
08:34AM 40.7731 -87.1789 339° North 239 275 26,000  Level Indianapolis Center
08:35AM 40.8356 -87.2131 338° Northwest 243 280 26,000  Level Indianapolis Center
08:36AM 40.8981 -87.2456 339° North 243 280 26,000  Level Indianapolis Center
08:37AM 40.9958 -87.2967 338° Northwest 240 276 26,000  Level Chicago Center
08:38AM 41.0564 -87.3292 338° Northwest 238 274 26,000  Level Chicago Center
08:39AM 41.1175 -87.3603 339° North 237 273 26,000  Level Chicago Center
08:40AM 41.1906 -87.3992 338° Northwest 238 274 26,000  Level Chicago Center
08:41AM 41.2517 -87.4322 338° Northwest 239 275 26,100  Climbing Chicago Center
08:42AM 41.3117 -87.4650 338° Northwest 236 272 26,100  Level Chicago Center
08:43AM 41.3725 -87.4967 339° North 237 273 26,100  Level Chicago Center
08:44AM 41.4333 -87.5283 339° North 236 272 26,100  Level Chicago Center
08:45AM 41.5050 -87.5672 338° Northwest 234 269 26,100  Level Chicago Center
08:47AM 41.5644 -87.6006 337° Northwest 235 270 26,100  Level Chicago Center
08:48AM 41.6050 -87.6556 315° West 210 242 26,100  Level Chicago Center
08:49AM 41.6508 -87.7083 319° Northwest 217 250 26,100  Level Chicago Center
08:50AM 41.6947 -87.7608 318° Northwest 215 247 26,100  Level Chicago Center
08:51AM 41.7489 -87.8253 318° Northwest 219 252 26,100 -180 Level Chicago Center
08:52AM 41.7919 -87.8794 317° Northwest 216 249 25,800 -600 Descending Chicago Center
08:53AM 41.8381 -87.9383 316° Northwest 229 264 24,900 -840 Descending Chicago Center
08:54AM 41.8897 -87.9983 319° Northwest 245 282 24,100 -480 Descending Chicago Center
08:55AM 41.9381 -88.0578 318° Northwest 241 277 24,000 -60 Descending Chicago Center
08:56AM 41.9925 -88.1222 319° Northwest 224 258 24,000 -120 Level Chicago Center
08:57AM 42.0372 -88.1775 317° Northwest 220 253 23,800 -720 Descending Chicago Center
08:58AM 42.0842 -88.2383 316° Northwest 232 267 22,600 -900 Descending Chicago Center
08:59AM 42.1358 -88.3014 318° Northwest 248 285 22,000 -840 Descending Chicago Center
09:00AM 42.1847 -88.3603 318° Northwest 242 278 20,900 -1,080 Descending Chicago Center
09:01AM 42.2328 -88.4228 316° Northwest 240 276 19,800 -1,200 Descending Chicago Center
09:02AM 42.2919 -88.4939 318° Northwest 239 275 18,500 -1,200 Descending Chicago Center
09:03AM 42.3408 -88.5586 316° Northwest 242 278 17,400 -1,080 Descending Chicago Center
09:04AM 42.3922 -88.6208 318° Northwest 246 283 16,300 -1,080 Descending Chicago Center
09:05AM 42.4414 -88.6800 318° Northwest 240 276 15,200 -600 Descending Chicago Center
09:06AM 42.4886 -88.7403 317° Northwest 231 266 15,100 -300 Descending Chicago Center
09:07AM 42.5358 -88.7986 318° Northwest 228 262 14,700 -780 Descending Chicago Center
09:08AM 42.5944 -88.8717 317° Northwest 237 273 13,600 -1,020 Descending Chicago Center
09:09AM 42.6439 -88.9336 317° Northwest 240 276 12,600 -1,500 Descending Chicago Center
09:10AM 42.6917 -88.9947 317° Northwest 236 272 10,600 -1,740 Descending Chicago Center
09:11AM 42.7389 -89.0569 316° Northwest 235 270 9,000 -1,500 Descending Chicago Center
09:12AM 42.7850 -89.1133 318° Northwest 226 260 7,500 -1,500 Descending Chicago Center
09:13AM 42.8308 -89.1700 318° Northwest 223 257 6,000 -1,560 Descending Chicago Center
09:14AM 42.8817 -89.2344 317° Northwest 209 241 4,300 -960 Descending Chicago Center
09:15AM 42.9239 -89.2892 317° Northwest 210 242 4,100 -180 Descending Chicago Center
09:17AM 42.9683 -89.3158 336° Northwest 193 222 4,000 -300 Descending Chicago Center
09:18AM 43.0175 -89.3344 345° North 188 216 3,600 -480 Descending Chicago Center
09:19AM 43.0500 -89.3769 316° Northwest 179 206 3,100 -480 Descending Chicago Center
09:20AM 43.0758 -89.4169 311° West 158 182 2,700 -240 Descending Chicago Center
09:21AM 43.1008 -89.4469 319° Northwest 126 145 2,700 -480 Level Chicago Center
09:22AM 43.1086 -89.4822 287° West 108 124 1,800 -660 Descending Chicago Center
09:23AM 43.1128 -89.5186 279° West 100 115 1,400 -420 Descending Chicago Center